CheckWX is a tool to help pilots better visualize weather data.  It is not intended as a substitute for an official pre-flight weather briefing.

06:53:58 UTC

KGYY TAF
Gary / Chicago International Airport
Gary, Indiana, USA
KGYY 180536Z 1806/1906 06003KT 1/4SM FG OVC002 FM181500 03005KT 5SM BR BKN009 FM181700 03005KT P6SM BKN015 FM181900 01006KT P6SM BKN020 FM182100 02008KT P6SM BKN050 FM190100 04005KT P6SM FEW035 BKN100 FM190400 VRB03KT 1 1/2SM BR SCT060

Jun-18@
06:00 UTC

Jun-18 @ 06:00 UTC

Jun-18@
15:00 UTC

Jun-18 @ 15:00 UTC

KGYY 180536Z 1806/1906 06003KT 1/4SM FG OVC002
Wind
  • 060° at 3 KTS
Conditions
Fog
Cloud Levels
  • Overcast at 200' AGL

Jun-18@
15:00 UTC

Jun-18 @ 15:00 UTC

Jun-18@
17:00 UTC

Jun-18 @ 17:00 UTC

FM181500 03005KT 5SM BR BKN009

From

From Standard forecast or significant change

Wind
  • 030° at 5 KTS
Conditions
Mist
Cloud Levels
  • Broken at 900' AGL

Jun-18@
17:00 UTC

Jun-18 @ 17:00 UTC

Jun-18@
19:00 UTC

Jun-18 @ 19:00 UTC

FM181700 03005KT P6SM BKN015

From

From Standard forecast or significant change

Wind
  • 030° at 5 KTS
Cloud Levels
  • Broken at 1,500' AGL

Jun-18@
19:00 UTC

Jun-18 @ 19:00 UTC

Jun-18@
21:00 UTC

Jun-18 @ 21:00 UTC

FM181900 01006KT P6SM BKN020

From

From Standard forecast or significant change

Wind
  • 010° at 6 KTS
Cloud Levels
  • Broken at 2,000' AGL

Jun-18@
21:00 UTC

Jun-18 @ 21:00 UTC

Jun-19@
01:00 UTC

Jun-19 @ 01:00 UTC

FM182100 02008KT P6SM BKN050

From

From Standard forecast or significant change

Wind
  • 020° at 8 KTS
Cloud Levels
  • Broken at 5,000' AGL

Jun-19@
01:00 UTC

Jun-19 @ 01:00 UTC

Jun-19@
04:00 UTC

Jun-19 @ 04:00 UTC

FM190100 04005KT P6SM FEW035 BKN100

From

From Standard forecast or significant change

Wind
  • 040° at 5 KTS
Cloud Levels
  • Few at 3,500' AGL
  • Broken at 10,000' AGL

Jun-19@
04:00 UTC

Jun-19 @ 04:00 UTC

Jun-19@
06:00 UTC

Jun-19 @ 06:00 UTC

FM190400 VRB03KT 1 1/2SM BR SCT060

From

From Standard forecast or significant change

Wind
  • Variable at 3 KTS
Conditions
Mist
Cloud Levels
  • Scattered at 6,000' AGL